Terminal Aerodrome Forecast
Issued by NWS

Home | Current Version | Previous Version | Text Only | Print | Product List | Glossary On
Versions: 1 2 3 4 5 6 7 8 9 10 11 12 13 14 15 16 17
818
FTUS42 KMLB 262340
TAFTIX
TAF
KTIX 262340Z 2700/2724 04010KT P6SM SKC
     FM270600 07008KT P6SM SCT035
      AMD NOT SKED 2702/2712=

USA.gov is the U.S. government's official web portal to all federal, state and local government web resources and services.